Main page
METAR-TAF:

METAR-TAF

Airports :

Trieste – Friuli Venezia Giulia Airport

Trieste / Ronchi dei Legionari, Italy

latitude: 45-49N, longitude: 013-29E, elevation: 12 m

Current weather observation

The report was made 14 minutes ago, at 17:20 UTC
Wind 7 kt from the North/Northwest
Temperature 12°C
Humidity 76%
Pressure 1015 hPa
Visibility 10 km or more
light rain

METAR: LIPQ 201720Z AUTO 34007KT 9999 -RA OVC062/// 12/08 Q1015

Time: 19:34 (17:34 UTC)

Forecast

The report was made 6 hours and 34 minutes ago, at 11:00 UTC
Forecast valid from 20 at 12 UTC to 21 at 12 UTC
Wind 6 kt from the South
Visibility 10 km or more
Few clouds at a height of 2000 ft
Scattered clouds at a height of 6000 ft
Temporary
from 20 at 12 UTC to 20 at 18 UTC
thunderstorm, rain

TAF: LIPQ 201100Z 2012/2112 18006KT 9999 FEW020 SCT060 TEMPO 2012/2018 TSRA

Weather observations and forecasts of more than 4000 airports (METAR and TAF reports).

The available stations are represented by yellow and red dots on the map.

Hover mouse over dot to see the name of the station.

Then click to see weather observations and forecasts.

To change the map : click on the green buttons with a black cross to zoom in, on the green button with a dash to zoom out, or on the green arrows for adjacent maps.


METAR-TAF: